Time;durP1;ratioP1;P1;durP2;ratioP2;P2;SDS_P1;SDS_P2;PMS_P1;PMS_P2;Temp;Humidity;BMP_temperature;BMP_pressure;BME280_temperature;BME280_humidity;BME280_pressure;Samples;Min_cycle;Max_cycle;Signal;HPM_P1;HPM_P2
2022/04/30 00:00:00;;;;;;;;;;;;;;;15.75;56.56;102727.03;1044710;28;1910;-62
2022/04/30 00:00:51;;;;;;;;;;;;;;;15.77;56.37;102730.47;1040446;28;673;-62
2022/04/30 00:01:41;;;;;;;;;;;;;;;15.75;55.99;102727.88;1040464;28;768;-62
2022/04/30 00:02:32;;;;;;;;;;;;;;;15.73;56.69;102726.25;1043018;28;1426;-60
2022/04/30 00:03:24;;;;;;;;;;;;;;;15.74;56.36;102725.28;1044132;28;618;-60
2022/04/30 00:04:15;;;;;;;;;;;;;;;15.72;56.02;102720.00;1044812;28;1335;-60
2022/04/30 00:05:05;;;;;;;;;;;;;;;15.71;56.34;102738.91;1044541;28;618;-60
2022/04/30 00:05:56;;;;;;;;;;;;;;;15.71;56.23;102730.84;1046251;28;617;-60
2022/04/30 00:06:46;;;;;;;;;;;;;;;15.68;56.05;102734.56;1046347;28;634;-61
2022/04/30 00:07:37;;;;;;;;;;;;;;;15.68;56.66;102733.69;1046232;28;618;-60
2022/04/30 00:08:27;;;;;;;;;;;;;;;15.68;56.33;102720.25;1044710;28;677;-60
2022/04/30 00:09:17;;;;;;;;;;;;;;;15.67;56.17;102721.19;1046277;28;637;-60
2022/04/30 00:10:08;;;;;;;;;;;;;;;15.67;56.29;102730.13;1046157;28;613;-60
2022/04/30 00:10:58;;;;;;;;;;;;;;;15.70;56.40;102727.28;1045971;28;748;-60
2022/04/30 00:11:49;;;;;;;;;;;;;;;15.69;56.21;102725.53;1044480;28;901;-60
2022/04/30 00:12:39;;;;;;;;;;;;;;;15.67;56.22;102721.19;1044649;28;1465;-60
2022/04/30 00:13:30;;;;;;;;;;;;;;;15.65;56.18;102725.78;1045062;28;766;-60
2022/04/30 00:14:20;;;;;;;;;;;;;;;15.66;55.99;102720.31;1044441;28;720;-60
2022/04/30 00:15:11;;;;;;;;;;;;;;;15.67;56.21;102718.50;1045123;28;689;-60
2022/04/30 00:16:01;;;;;;;;;;;;;;;15.66;56.45;102719.47;1045046;28;745;-60
2022/04/30 00:16:52;;;;;;;;;;;;;;;15.66;56.43;102724.84;1045634;28;685;-60
2022/04/30 00:17:42;;;;;;;;;;;;;;;15.64;56.09;102716.84;1045071;28;716;-60
2022/04/30 00:18:32;;;;;;;;;;;;;;;15.64;56.28;102727.59;1045012;28;693;-60
2022/04/30 00:19:23;;;;;;;;;;;;;;;15.63;56.18;102721.38;1045102;28;763;-60
2022/04/30 00:20:13;;;;;;;;;;;;;;;15.62;56.52;102718.75;1044957;28;1894;-60
2022/04/30 00:21:05;;;;;;;;;;;;;;;15.62;56.53;102718.75;1045334;28;1499;-60
2022/04/30 00:21:55;;;;;;;;;;;;;;;15.61;56.31;102723.28;1044599;28;626;-60
2022/04/30 00:22:45;;;;;;;;;;;;;;;15.58;56.19;102720.78;1046196;28;692;-60
2022/04/30 00:23:36;;;;;;;;;;;;;;;15.57;56.37;102721.72;1044533;28;666;-60
2022/04/30 00:24:26;;;;;;;;;;;;;;;15.59;56.40;102727.00;1040647;28;664;-60
2022/04/30 00:25:17;;;;;;;;;;;;;;;15.57;55.86;102721.72;1041434;28;657;-61
2022/04/30 00:26:07;;;;;;;;;;;;;;;15.59;56.17;102724.31;1042554;28;725;-60
2022/04/30 00:27:01;;;;;;;;;;;;;;;15.58;56.19;102727.97;1046294;28;641;-61
2022/04/30 00:27:52;;;;;;;;;;;;;;;15.56;56.50;102725.38;1046247;28;617;-61
2022/04/30 00:28:42;;;;;;;;;;;;;;;15.56;55.82;102717.31;1046431;28;668;-60
2022/04/30 00:29:32;;;;;;;;;;;;;;;15.54;56.09;102721.88;1046298;28;732;-61
2022/04/30 00:30:23;;;;;;;;;;;;;;;15.53;56.23;102722.81;1046160;28;727;-61
2022/04/30 00:31:13;;;;;;;;;;;;;;;15.53;56.02;102716.56;1042291;28;693;-60
2022/04/30 00:32:04;;;;;;;;;;;;;;;15.53;56.29;102714.75;1040373;28;721;-61
2022/04/30 00:32:54;;;;;;;;;;;;;;;15.53;56.18;102714.75;1040521;28;670;-60
2022/04/30 00:33:48;;;;;;;;;;;;;;;15.53;56.22;102720.13;1040330;28;630;-60
2022/04/30 00:34:38;;;;;;;;;;;;;;;15.54;55.82;102715.63;1040451;28;674;-60
2022/04/30 00:35:29;;;;;;;;;;;;;;;15.54;55.97;102719.19;1040346;28;714;-60
2022/04/30 00:36:19;;;;;;;;;;;;;;;15.52;56.05;102715.69;1041462;28;650;-60
2022/04/30 00:37:09;;;;;;;;;;;;;;;15.53;55.89;102714.75;1040420;28;610;-60
2022/04/30 00:38:00;;;;;;;;;;;;;;;15.52;56.06;102713.03;1040487;28;660;-60
2022/04/30 00:38:50;;;;;;;;;;;;;;;15.52;55.94;102718.41;1040327;28;655;-60
2022/04/30 00:39:41;;;;;;;;;;;;;;;15.53;55.87;102714.75;1041089;28;653;-61
2022/04/30 00:40:31;;;;;;;;;;;;;;;15.51;55.74;102713.97;1040506;28;678;-61
2022/04/30 00:41:23;;;;;;;;;;;;;;;15.48;56.08;102706.06;1040873;28;701;-60
2022/04/30 00:42:14;;;;;;;;;;;;;;;15.49;55.72;102705.13;1041008;28;1258;-60
2022/04/30 00:43:04;;;;;;;;;;;;;;;15.49;56.34;102715.00;1041617;28;642;-60
2022/04/30 00:43:56;;;;;;;;;;;;;;;15.49;56.15;102710.50;1041707;28;656;-60
2022/04/30 00:44:47;;;;;;;;;;;;;;;15.48;55.55;102711.44;1040603;28;758;-60
2022/04/30 00:45:38;;;;;;;;;;;;;;;15.51;55.94;102711.28;1040671;28;650;-61
2022/04/30 00:46:28;;;;;;;;;;;;;;;15.47;55.99;102709.72;1041655;28;693;-61
2022/04/30 00:47:19;;;;;;;;;;;;;;;15.49;55.88;102701.56;1041600;28;674;-61
2022/04/30 00:48:09;;;;;;;;;;;;;;;15.48;56.12;102707.88;1040521;28;685;-61
2022/04/30 00:49:01;;;;;;;;;;;;;;;15.48;56.06;102706.06;1041703;28;689;-61
2022/04/30 00:49:52;;;;;;;;;;;;;;;15.48;56.17;102706.06;1041738;28;740;-61
2022/04/30 00:50:42;;;;;;;;;;;;;;;15.44;55.84;102703.63;1043250;28;1228;-61
2022/04/30 00:51:33;;;;;;;;;;;;;;;15.42;56.02;102706.41;1041681;28;634;-61
2022/04/30 00:52:25;;;;;;;;;;;;;;;15.43;55.99;102702.78;1041261;28;701;-61
2022/04/30 00:53:19;;;;;;;;;;;;;;;15.43;56.03;102702.78;1041097;28;729;-61
2022/04/30 00:54:09;;;;;;;;;;;;;;;15.42;55.77;102701.03;1040681;28;763;-61
2022/04/30 00:55:01;;;;;;;;;;;;;;;15.43;55.72;102704.59;1041270;28;662;-61
2022/04/30 00:55:52;;;;;;;;;;;;;;;15.45;56.16;102702.69;1041170;28;689;-61
2022/04/30 00:56:43;;;;;;;;;;;;;;;15.45;55.89;102706.25;1041156;28;687;-61
2022/04/30 00:57:34;;;;;;;;;;;;;;;15.43;55.96;102708.13;1042709;28;732;-61
2022/04/30 00:58:24;;;;;;;;;;;;;;;15.42;55.93;102701.03;1041039;28;673;-61
2022/04/30 00:59:17;;;;;;;;;;;;;;;15.41;56.13;102704.66;1040478;28;654;-61
2022/04/30 01:00:07;;;;;;;;;;;;;;;15.40;56.14;102700.28;1041009;28;1910;-61
2022/04/30 01:00:59;;;;;;;;;;;;;;;15.41;55.98;102701.97;1042635;28;1465;-61
2022/04/30 01:01:50;;;;;;;;;;;;;;;15.41;55.97;102707.34;1045201;28;640;-61
2022/04/30 01:02:40;;;;;;;;;;;;;;;15.41;56.17;102701.13;1045886;28;744;-60
2022/04/30 01:03:31;;;;;;;;;;;;;;;15.40;56.16;102705.66;1045772;28;634;-61
2022/04/30 01:04:21;;;;;;;;;;;;;;;15.39;55.70;102703.91;1045849;28;618;-60
2022/04/30 01:05:12;;;;;;;;;;;;;;;15.41;55.67;102695.75;1046428;28;606;-60
2022/04/30 01:06:02;;;;;;;;;;;;;;;15.39;56.12;102698.53;1045804;28;650;-60
2022/04/30 01:06:52;;;;;;;;;;;;;;;15.36;56.10;102706.75;1046013;28;642;-60
2022/04/30 01:07:43;;;;;;;;;;;;;;;15.35;55.96;102696.97;1046488;28;650;-60
2022/04/30 01:08:33;;;;;;;;;;;;;;;15.36;55.81;102698.72;1047393;28;689;-60
2022/04/30 01:09:24;;;;;;;;;;;;;;;15.36;55.91;102697.84;1049313;28;732;-59
2022/04/30 01:10:14;;;;;;;;;;;;;;;15.36;55.61;102696.03;1047393;28;689;-60
2022/04/30 01:11:05;;;;;;;;;;;;;;;15.34;55.91;102702.44;1042664;28;673;-60
2022/04/30 01:11:58;;;;;;;;;;;;;;;15.33;55.72;102698.00;1041263;28;627;-60
2022/04/30 01:12:49;;;;;;;;;;;;;;;15.30;55.98;102701.72;1044221;28;1395;-60
2022/04/30 01:13:39;;;;;;;;;;;;;;;15.30;55.84;102701.72;1046915;28;744;-60
2022/04/30 01:14:31;;;;;;;;;;;;;;;15.29;55.96;102700.00;1046983;28;683;-60
2022/04/30 01:15:21;;;;;;;;;;;;;;;15.31;55.94;102703.47;1047006;28;700;-60
2022/04/30 01:16:12;;;;;;;;;;;;;;;15.29;55.77;102700.84;1045257;28;716;-60
2022/04/30 01:17:05;;;;;;;;;;;;;;;15.31;56.02;102698.09;1046866;28;692;-60
2022/04/30 01:17:56;;;;;;;;;;;;;;;15.31;55.62;102705.28;1046991;28;626;-60
2022/04/30 01:18:46;;;;;;;;;;;;;;;15.28;55.68;102699.13;1046810;28;637;-60
2022/04/30 01:19:37;;;;;;;;;;;;;;;15.28;55.60;102703.63;1046943;28;633;-60
2022/04/30 01:20:28;;;;;;;;;;;;;;;15.28;55.89;102703.63;1046850;28;630;-60
2022/04/30 01:21:18;;;;;;;;;;;;;;;15.26;55.74;102697.47;1042705;28;685;-60
2022/04/30 01:22:09;;;;;;;;;;;;;;;15.25;55.98;102691.22;1041123;28;694;-60
2022/04/30 01:23:00;;;;;;;;;;;;;;;15.28;55.68;102699.13;1042140;28;729;-60
2022/04/30 01:23:51;;;;;;;;;;;;;;;15.26;56.01;102690.28;1041042;28;729;-60
2022/04/30 01:24:41;;;;;;;;;;;;;;;15.28;55.88;102688.38;1040908;28;642;-60
2022/04/30 01:25:32;;;;;;;;;;;;;;;15.27;55.82;102694.69;1041064;28;682;-61
2022/04/30 01:26:23;;;;;;;;;;;;;;;15.28;55.45;102690.19;1040950;28;633;-60
2022/04/30 01:27:14;;;;;;;;;;;;;;;15.29;55.56;102689.25;1042212;28;677;-60
2022/04/30 01:28:04;;;;;;;;;;;;;;;15.25;55.38;102687.66;1041065;28;681;-60
2022/04/30 01:28:55;;;;;;;;;;;;;;;15.26;55.97;102684.91;1040928;28;622;-60
2022/04/30 01:29:45;;;;;;;;;;;;;;;15.27;55.96;102691.13;1041087;28;678;-60
2022/04/30 01:30:35;;;;;;;;;;;;;;;15.25;55.82;102687.66;1043742;28;1418;-60
2022/04/30 01:38:05;;;;;;;;;;;;;;;15.18;55.76;102683.59;1044635;28;622;-62
2022/04/30 01:38:56;;;;;;;;;;;;;;;15.19;55.45;102682.66;1045398;28;1383;-61
2022/04/30 01:39:46;;;;;;;;;;;;;;;15.19;55.57;102674.59;1045178;28;626;-62
2022/04/30 01:40:36;;;;;;;;;;;;;;;15.19;55.50;102680.84;1046888;28;639;-61
2022/04/30 01:41:27;;;;;;;;;;;;;;;15.20;55.42;102674.53;1046788;28;751;-60
2022/04/30 01:42:18;;;;;;;;;;;;;;;15.17;55.68;102674.69;1046026;28;1114;-60
2022/04/30 01:43:09;;;;;;;;;;;;;;;15.19;55.86;102677.28;1046749;28;933;-60
2022/04/30 01:44:00;;;;;;;;;;;;;;;15.18;55.08;102676.41;1046761;28;700;-60
2022/04/30 01:44:51;;;;;;;;;;;;;;;15.17;55.41;102669.31;1046733;28;815;-60
2022/04/30 01:45:43;;;;;;;;;;;;;;;15.15;55.43;102671.22;1046638;28;692;-60
2022/04/30 01:46:33;;;;;;;;;;;;;;;15.15;55.13;102675.72;1046657;28;617;-60
2022/04/30 01:47:24;;;;;;;;;;;;;;;15.15;55.82;102675.72;1046704;28;653;-60
2022/04/30 01:48:14;;;;;;;;;;;;;;;15.14;55.49;102676.66;1045661;28;703;-60
2022/04/30 01:49:05;;;;;;;;;;;;;;;15.15;55.68;102673.03;1046442;28;1448;-60
2022/04/30 01:49:55;;;;;;;;;;;;;;;15.14;55.43;102669.47;1046067;28;720;-60
2022/04/30 01:50:46;;;;;;;;;;;;;;;15.16;56.02;102675.63;1046124;28;1157;-60
2022/04/30 01:51:38;;;;;;;;;;;;;;;15.16;55.45;102675.63;1046104;28;654;-60
2022/04/30 01:52:30;;;;;;;;;;;;;;;15.15;55.79;102670.34;1045107;28;705;-60
2022/04/30 01:53:20;;;;;;;;;;;;;;;15.15;55.69;102664.97;1045194;28;694;-60
2022/04/30 01:54:11;;;;;;;;;;;;;;;15.15;55.81;102662.28;1046164;28;649;-60
2022/04/30 01:55:01;;;;;;;;;;;;;;;15.16;55.16;102667.56;1046001;28;677;-60
2022/04/30 01:55:51;;;;;;;;;;;;;;;15.14;55.91;102665.91;1046682;28;1397;-60
2022/04/30 01:56:42;;;;;;;;;;;;;;;15.12;55.37;102665.13;1045536;28;613;-60
2022/04/30 01:57:32;;;;;;;;;;;;;;;15.12;55.20;102662.44;1045544;28;641;-60
2022/04/30 01:58:23;;;;;;;;;;;;;;;15.12;55.48;102659.75;1045553;28;633;-60
2022/04/30 01:59:13;;;;;;;;;;;;;;;15.10;55.75;102659.84;1045584;28;626;-60
2022/04/30 02:00:04;;;;;;;;;;;;;;;15.11;55.38;102661.59;1045409;28;1917;-60
2022/04/30 02:00:54;;;;;;;;;;;;;;;15.10;55.33;102657.16;1045631;28;662;-61
2022/04/30 02:01:45;;;;;;;;;;;;;;;15.08;55.41;102655.50;1046742;28;614;-60
2022/04/30 02:02:35;;;;;;;;;;;;;;;15.07;55.62;102662.69;1045634;28;701;-60
2022/04/30 02:03:27;;;;;;;;;;;;;;;15.05;55.32;102661.06;1045554;28;678;-60
2022/04/30 02:04:18;;;;;;;;;;;;;;;15.03;55.61;102653.09;1046609;28;756;-60
2022/04/30 02:05:08;;;;;;;;;;;;;;;15.05;55.38;102661.91;1045547;28;622;-60
2022/04/30 02:05:58;;;;;;;;;;;;;;;15.05;55.38;102655.69;1042115;28;677;-60
2022/04/30 02:06:49;;;;;;;;;;;;;;;15.04;55.80;102652.16;1040483;28;643;-60
2022/04/30 02:07:39;;;;;;;;;;;;;;;15.04;55.90;102648.59;1044552;28;1462;-60
2022/04/30 02:08:32;;;;;;;;;;;;;;;15.07;55.52;102656.44;1044875;28;681;-61
2022/04/30 02:09:22;;;;;;;;;;;;;;;15.09;55.43;102651.88;1044943;28;833;-60
2022/04/30 02:10:12;;;;;;;;;;;;;;;15.07;55.32;102651.09;1045453;28;736;-60
2022/04/30 02:11:03;;;;;;;;;;;;;;;15.05;55.77;102647.66;1046081;28;630;-60
2022/04/30 02:11:53;;;;;;;;;;;;;;;15.05;55.74;102655.69;1045433;28;741;-60
2022/04/30 02:12:44;;;;;;;;;;;;;;;15.04;55.85;102654.84;1044846;28;666;-60
2022/04/30 02:13:35;;;;;;;;;;;;;;;15.04;55.65;102653.97;1045490;28;693;-60
2022/04/30 02:14:25;;;;;;;;;;;;;;;15.04;55.58;102651.28;1045553;28;681;-61
2022/04/30 02:15:15;;;;;;;;;;;;;;;15.07;55.53;102656.44;1045451;28;642;-61
2022/04/30 02:16:06;;;;;;;;;;;;;;;15.07;55.78;102645.72;1042120;28;630;-61
2022/04/30 02:16:56;;;;;;;;;;;;;;;15.09;55.24;102647.38;1043433;28;696;-61
2022/04/30 02:17:47;;;;;;;;;;;;;;;15.09;55.31;102643.81;1043801;28;729;-60
2022/04/30 02:18:37;;;;;;;;;;;;;;;15.06;54.97;102646.66;1045814;28;672;-60
2022/04/30 02:19:28;;;;;;;;;;;;;;;15.05;55.68;102648.47;1045838;28;741;-60
2022/04/30 02:20:18;;;;;;;;;;;;;;;15.06;55.63;102642.16;1041214;28;1949;-61
2022/04/30 02:21:09;;;;;;;;;;;;;;;15.08;55.11;102648.31;1040570;28;674;-60
2022/04/30 02:21:59;;;;;;;;;;;;;;;15.04;55.35;102648.59;1040970;28;825;-61
2022/04/30 02:22:50;;;;;;;;;;;;;;;15.05;55.14;102642.28;1040805;28;623;-61
2022/04/30 02:23:41;;;;;;;;;;;;;;;15.02;55.08;102643.31;1040831;28;631;-61
2022/04/30 02:24:31;;;;;;;;;;;;;;;14.99;55.32;102642.59;1041924;28;661;-61
2022/04/30 02:25:22;;;;;;;;;;;;;;;14.99;55.58;102639.91;1048040;28;1414;-60
2022/04/30 02:26:12;;;;;;;;;;;;;;;14.97;55.40;102644.50;1048227;28;645;-60
2022/04/30 02:27:02;;;;;;;;;;;;;;;14.97;55.68;102639.13;1040473;28;587;-60
2022/04/30 02:27:53;;;;;;;;;;;;;;;14.96;55.67;102637.41;1040798;28;694;-60
2022/04/30 02:28:44;;;;;;;;;;;;;;;14.94;55.78;102645.53;1040882;28;689;-60
2022/04/30 02:29:35;;;;;;;;;;;;;;;14.96;55.71;102640.06;1041492;28;641;-60
2022/04/30 02:30:26;;;;;;;;;;;;;;;14.93;55.55;102639.28;1041294;28;716;-60
2022/04/30 02:31:17;;;;;;;;;;;;;;;14.96;54.91;102640.06;1040667;28;646;-60
2022/04/30 02:32:07;;;;;;;;;;;;;;;14.93;55.49;102638.44;1040849;28;607;-60
2022/04/30 02:32:58;;;;;;;;;;;;;;;14.96;55.10;102640.06;1041286;28;621;-60
2022/04/30 02:33:48;;;;;;;;;;;;;;;14.93;55.06;102639.28;1040766;28;639;-60
2022/04/30 02:34:39;;;;;;;;;;;;;;;14.92;55.23;102642.94;1040793;28;631;-60
2022/04/30 02:35:29;;;;;;;;;;;;;;;14.91;55.76;102634.94;1044445;28;1442;-60
2022/04/30 02:36:22;;;;;;;;;;;;;;;14.94;55.71;102641.03;1046619;28;685;-60
2022/04/30 02:37:14;;;;;;;;;;;;;;;14.94;55.24;102642.84;1046666;28;649;-60
2022/04/30 02:38:10;;;;;;;;;;;;;;;14.96;55.10;102634.72;1044804;28;554;-59
2022/04/30 02:39:01;;;;;;;;;;;;;;;14.94;55.24;102637.47;1046601;28;601;-59
2022/04/30 02:39:52;;;;;;;;;;;;;;;14.94;55.21;102635.66;1045953;28;680;-60
2022/04/30 02:40:42;;;;;;;;;;;;;;;14.94;55.00;102637.47;1044934;28;575;-59
2022/04/30 02:41:35;;;;;;;;;;;;;;;14.93;55.33;102639.28;1046484;28;610;-60
2022/04/30 02:42:25;;;;;;;;;;;;;;;14.92;55.51;102642.06;1044606;28;1129;-59
2022/04/30 02:43:18;;;;;;;;;;;;;;;14.92;55.77;102642.94;1044753;28;554;-60
2022/04/30 02:44:09;;;;;;;;;;;;;;;14.89;55.14;102632.34;1046586;28;633;-60
2022/04/30 02:44:59;;;;;;;;;;;;;;;14.90;55.59;102641.28;1046506;28;696;-60
2022/04/30 02:45:50;;;;;;;;;;;;;;;14.91;55.28;102635.81;1040690;28;658;-60
2022/04/30 02:46:41;;;;;;;;;;;;;;;14.91;55.01;102632.28;1040718;28;645;-60
2022/04/30 02:47:31;;;;;;;;;;;;;;;14.92;55.14;102634.88;1040777;28;674;-60
2022/04/30 02:48:22;;;;;;;;;;;;;;;14.92;55.33;102634.00;1040627;28;767;-60
2022/04/30 02:49:12;;;;;;;;;;;;;;;14.92;55.79;102634.88;1040833;28;716;-60
2022/04/30 02:50:03;;;;;;;;;;;;;;;14.90;55.33;102628.72;1040618;28;614;-60
2022/04/30 02:50:58;;;;;;;;;;;;;;;14.90;55.39;102636.78;1043828;28;1197;-60
2022/04/30 02:51:49;;;;;;;;;;;;;;;14.86;54.81;102637.91;1044333;28;646;-60
2022/04/30 02:52:41;;;;;;;;;;;;;;;14.85;55.14;102632.63;1044320;28;623;-60
2022/04/30 02:53:32;;;;;;;;;;;;;;;14.86;55.13;102626.31;1044751;28;783;-60
2022/04/30 02:54:22;;;;;;;;;;;;;;;14.86;55.39;102629.00;1044121;28;1017;-60
2022/04/30 02:55:12;;;;;;;;;;;;;;;14.82;55.07;102625.59;1044133;28;1415;-61
2022/04/30 02:56:03;;;;;;;;;;;;;;;14.83;55.53;102627.34;1041517;28;682;-61
2022/04/30 02:56:53;;;;;;;;;;;;;;;14.81;55.58;102620.31;1041981;28;724;-61
2022/04/30 03:00:04;;;;;;;;;;;;;;;14.84;55.59;102623.69;1044179;28;1914;-61
2022/04/30 03:00:54;;;;;;;;;;;;;;;14.84;55.56;102620.16;1045923;28;606;-62
2022/04/30 03:01:45;;;;;;;;;;;;;;;14.82;55.57;102628.28;1045405;28;614;-61
2022/04/30 03:02:35;;;;;;;;;;;;;;;14.81;55.51;102620.31;1045265;28;648;-61
2022/04/30 03:03:29;;;;;;;;;;;;;;;14.83;55.47;102621.09;1044453;28;1422;-61
2022/04/30 03:04:20;;;;;;;;;;;;;;;14.83;55.09;102623.78;1043888;28;1244;-61
2022/04/30 03:05:11;;;;;;;;;;;;;;;14.83;54.96;102621.97;1044350;28;630;-61
2022/04/30 03:06:01;;;;;;;;;;;;;;;14.85;55.07;102627.25;1046454;28;810;-61
2022/04/30 03:06:52;;;;;;;;;;;;;;;14.86;55.08;102619.13;1045859;28;677;-61
2022/04/30 03:07:43;;;;;;;;;;;;;;;14.86;55.29;102621.81;1046352;28;655;-61
2022/04/30 03:08:33;;;;;;;;;;;;;;;14.87;55.12;102618.13;1046374;28;688;-61
2022/04/30 03:09:23;;;;;;;;;;;;;;;14.87;54.98;102618.13;1046396;28;692;-61
2022/04/30 03:10:14;;;;;;;;;;;;;;;14.87;54.88;102612.78;1046455;28;659;-61
2022/04/30 03:11:04;;;;;;;;;;;;;;;14.84;55.12;102612.97;1046333;28;677;-61
2022/04/30 03:11:55;;;;;;;;;;;;;;;14.84;54.91;102614.78;1046445;28;637;-61
2022/04/30 03:12:45;;;;;;;;;;;;;;;14.80;54.90;102616.75;1046364;28;668;-61
2022/04/30 03:13:36;;;;;;;;;;;;;;;14.80;55.26;102622.13;1045383;28;650;-61
2022/04/30 03:14:26;;;;;;;;;;;;;;;14.80;55.56;102616.75;1042211;28;653;-61
2022/04/30 03:15:22;;;;;;;;;;;;;;;14.82;55.03;102609.50;1040477;28;634;-61
2022/04/30 03:21:58;;;;;;;;;;;;;;;14.83;55.14;102611.22;1040508;28;693;-61
2022/04/30 03:22:49;;;;;;;;;;;;;;;14.83;55.66;102608.53;1040564;28;622;-61
2022/04/30 03:23:39;;;;;;;;;;;;;;;14.83;54.91;102608.53;1040484;28;627;-61
2022/04/30 03:24:31;;;;;;;;;;;;;;;14.83;55.26;102605.88;1041106;28;643;-61
2022/04/30 03:25:22;;;;;;;;;;;;;;;14.84;54.90;102607.59;1040128;28;645;-61
2022/04/30 03:26:12;;;;;;;;;;;;;;;14.84;55.05;102604.06;1041124;28;662;-61
2022/04/30 03:27:03;;;;;;;;;;;;;;;14.85;54.97;102603.97;1041046;28;618;-61
2022/04/30 03:27:54;;;;;;;;;;;;;;;14.84;55.28;102602.22;1040276;28;694;-61
2022/04/30 03:28:45;;;;;;;;;;;;;;;14.85;54.93;102611.16;1042450;28;646;-61
2022/04/30 03:29:35;;;;;;;;;;;;;;;14.83;55.26;102608.53;1043440;28;571;-60
2022/04/30 03:30:25;;;;;;;;;;;;;;;14.84;55.19;102602.22;1046233;28;665;-62
2022/04/30 03:31:18;;;;;;;;;;;;;;;14.83;55.41;102605.88;1040446;28;670;-62
2022/04/30 03:32:10;;;;;;;;;;;;;;;14.82;55.39;102606.81;1044636;28;693;-62
2022/04/30 03:33:01;;;;;;;;;;;;;;;14.83;55.38;102602.31;1044997;28;677;-62
2022/04/30 03:33:52;;;;;;;;;;;;;;;14.84;55.40;102599.53;1041816;28;1398;-62
2022/04/30 03:34:42;;;;;;;;;;;;;;;14.83;55.39;102605.88;1039810;28;667;-61
2022/04/30 03:35:33;;;;;;;;;;;;;;;14.83;55.27;102602.31;1041163;28;661;-62
2022/04/30 03:36:23;;;;;;;;;;;;;;;14.81;54.97;102596.16;1041588;28;665;-62
2022/04/30 03:37:14;;;;;;;;;;;;;;;14.82;55.20;102595.22;1040589;28;630;-62
2022/04/30 03:38:04;;;;;;;;;;;;;;;14.81;54.97;102597.03;1040606;28;669;-62
2022/04/30 03:38:55;;;;;;;;;;;;;;;14.81;55.04;102599.72;1040563;28;761;-62
2022/04/30 03:39:45;;;;;;;;;;;;;;;14.80;55.07;102594.41;1040478;28;648;-61
2022/04/30 03:40:35;;;;;;;;;;;;;;;14.79;55.56;102590.88;1041591;28;712;-61
2022/04/30 03:41:26;;;;;;;;;;;;;;;14.79;55.71;102593.56;1040430;28;638;-61
2022/04/30 03:42:16;;;;;;;;;;;;;;;14.80;55.63;102592.59;1040328;28;1205;-61
2022/04/30 03:43:07;;;;;;;;;;;;;;;14.80;55.41;102586.38;1040418;28;693;-61
2022/04/30 03:43:57;;;;;;;;;;;;;;;14.80;54.95;102589.06;1041145;28;1367;-61
2022/04/30 03:44:49;;;;;;;;;;;;;;;14.80;55.50;102587.25;1045761;28;649;-60
2022/04/30 03:45:41;;;;;;;;;;;;;;;14.80;55.40;102586.38;1044625;28;697;-61
2022/04/30 03:46:31;;;;;;;;;;;;;;;14.80;55.04;102581.88;1045596;28;841;-61
2022/04/30 03:47:22;;;;;;;;;;;;;;;14.80;55.54;102584.56;1045134;28;705;-61
2022/04/30 03:48:12;;;;;;;;;;;;;;;14.79;55.52;102580.13;1044696;28;638;-61
2022/04/30 03:49:04;;;;;;;;;;;;;;;14.79;54.91;102588.19;1045344;28;684;-60
2022/04/30 03:49:54;;;;;;;;;;;;;;;14.78;54.96;102583.75;1045691;28;693;-60
2022/04/30 03:50:45;;;;;;;;;;;;;;;14.78;55.45;102577.53;1045539;28;1157;-60
2022/04/30 03:51:35;;;;;;;;;;;;;;;14.78;55.05;102583.75;1045618;28;681;-61
2022/04/30 03:52:26;;;;;;;;;;;;;;;14.79;54.68;102587.31;1041838;28;696;-61
2022/04/30 03:53:16;;;;;;;;;;;;;;;14.80;54.89;102581.00;1039151;28;717;-61
2022/04/30 03:54:07;;;;;;;;;;;;;;;14.79;55.38;102581.94;1042934;28;1405;-61
2022/04/30 03:54:57;;;;;;;;;;;;;;;14.78;54.87;102586.44;1045044;28;693;-61
2022/04/30 03:55:47;;;;;;;;;;;;;;;14.78;55.00;102580.22;1041255;28;645;-61
2022/04/30 03:56:38;;;;;;;;;;;;;;;14.78;55.75;102583.75;1041609;28;1414;-61
2022/04/30 03:57:29;;;;;;;;;;;;;;;14.78;55.77;102581.09;1040984;28;697;-61
2022/04/30 03:58:22;;;;;;;;;;;;;;;14.79;55.39;102573.91;1041418;28;670;-61
2022/04/30 03:59:12;;;;;;;;;;;;;;;14.76;54.93;102574.06;1040382;28;622;-61
2022/04/30 04:00:04;;;;;;;;;;;;;;;14.76;55.27;102577.63;1040380;28;1993;-61
2022/04/30 04:00:54;;;;;;;;;;;;;;;14.77;54.70;102579.34;1040457;28;649;-61
2022/04/30 04:01:45;;;;;;;;;;;;;;;14.76;54.92;102577.63;1041516;28;653;-61
2022/04/30 04:02:36;;;;;;;;;;;;;;;14.75;54.91;102581.25;1039969;28;1092;-61
2022/04/30 04:03:26;;;;;;;;;;;;;;;14.77;54.99;102584.72;1040455;28;639;-61
2022/04/30 04:04:17;;;;;;;;;;;;;;;14.75;55.67;102581.25;1040382;28;642;-61
2022/04/30 04:05:08;;;;;;;;;;;;;;;14.76;55.00;102582.97;1041298;28;657;-61
2022/04/30 04:05:58;;;;;;;;;;;;;;;14.77;54.81;102583.84;1040452;28;658;-61
2022/04/30 04:06:49;;;;;;;;;;;;;;;14.76;55.50;102577.63;1040352;28;678;-61
2022/04/30 04:07:39;;;;;;;;;;;;;;;14.75;55.52;102575.88;1041013;28;685;-61
2022/04/30 04:08:30;;;;;;;;;;;;;;;14.75;55.07;102583.06;1040871;28;685;-61
2022/04/30 04:09:20;;;;;;;;;;;;;;;14.74;55.43;102589.38;1040901;28;647;-61
2022/04/30 04:10:10;;;;;;;;;;;;;;;14.76;55.11;102584.81;1040806;28;631;-61
2022/04/30 04:11:01;;;;;;;;;;;;;;;14.76;55.18;102592.84;1040955;28;607;-61
2022/04/30 04:11:51;;;;;;;;;;;;;;;14.75;54.85;102591.13;1040831;28;721;-61
2022/04/30 04:12:42;;;;;;;;;;;;;;;14.74;55.04;102590.25;1040835;28;733;-61
2022/04/30 04:18:09;;;;;;;;;;;;;;;14.75;55.07;102586.63;1045260;28;661;-61
2022/04/30 04:18:59;;;;;;;;;;;;;;;14.74;55.81;102595.63;1045894;28;640;-61
2022/04/30 04:19:49;;;;;;;;;;;;;;;14.74;55.20;102590.25;1046372;28;547;-61
2022/04/30 04:20:40;;;;;;;;;;;;;;;14.76;55.01;102601.78;1046534;28;708;-61
2022/04/30 04:21:30;;;;;;;;;;;;;;;14.74;55.23;102590.25;1046000;28;725;-61
2022/04/30 04:22:21;;;;;;;;;;;;;;;14.74;55.49;102589.38;1045970;28;689;-61
2022/04/30 04:23:11;;;;;;;;;;;;;;;14.76;55.65;102592.84;1046453;28;715;-61
2022/04/30 04:26:20;;;;;;;;;;;;;;;14.74;55.57;102590.25;1044795;28;689;-61
2022/04/30 04:27:10;;;;;;;;;;;;;;;14.73;55.17;102588.50;1046296;28;1456;-61
2022/04/30 04:28:01;;;;;;;;;;;;;;;14.72;54.93;102589.47;1046980;28;550;-61
2022/04/30 04:28:51;;;;;;;;;;;;;;;14.71;55.34;102586.84;1047130;28;1381;-61
2022/04/30 04:29:42;;;;;;;;;;;;;;;14.73;55.52;102596.56;1046100;28;634;-61
2022/04/30 04:30:32;;;;;;;;;;;;;;;14.74;55.12;102589.38;1046598;28;672;-61
2022/04/30 04:31:22;;;;;;;;;;;;;;;14.73;55.06;102593.00;1046128;28;701;-61
2022/04/30 04:32:13;;;;;;;;;;;;;;;14.73;55.29;102593.88;1045763;28;985;-61
2022/04/30 04:33:03;;;;;;;;;;;;;;;14.72;55.64;102592.16;1045942;28;884;-60
2022/04/30 04:33:54;;;;;;;;;;;;;;;14.71;55.34;102590.41;1046425;28;760;-60
2022/04/30 04:34:44;;;;;;;;;;;;;;;14.72;55.08;102591.28;1045917;28;685;-61
2022/04/30 04:35:35;;;;;;;;;;;;;;;14.72;55.53;102592.16;1046486;28;690;-60
2022/04/30 04:36:25;;;;;;;;;;;;;;;14.70;55.63;102596.72;1045854;28;697;-60
2022/04/30 04:37:15;;;;;;;;;;;;;;;14.72;55.19;102591.28;1045751;28;1468;-60
2022/04/30 04:38:06;;;;;;;;;;;;;;;14.74;55.06;102592.06;1047148;28;669;-60
2022/04/30 04:38:56;;;;;;;;;;;;;;;14.72;54.97;102592.16;1047324;28;704;-61
2022/04/30 04:39:47;;;;;;;;;;;;;;;14.70;55.55;102591.34;1049941;28;689;-60
2022/04/30 04:40:37;;;;;;;;;;;;;;;14.72;55.15;102593.97;1047463;28;725;-60
2022/04/30 04:41:27;;;;;;;;;;;;;;;14.71;55.46;102593.09;1046455;28;737;-61
2022/04/30 04:42:19;;;;;;;;;;;;;;;14.72;55.74;102586.78;1044148;28;1268;-61
2022/04/30 04:43:10;;;;;;;;;;;;;;;14.72;55.16;102597.50;1044817;28;786;-61
2022/04/30 04:44:02;;;;;;;;;;;;;;;14.71;55.02;102595.78;1047209;28;638;-61
2022/04/30 04:44:52;;;;;;;;;;;;;;;14.73;55.32;102593.00;1045498;28;654;-61
2022/04/30 04:45:43;;;;;;;;;;;;;;;14.74;55.14;102594.75;1045689;28;693;-61
2022/04/30 04:46:33;;;;;;;;;;;;;;;14.72;55.23;102594.81;1046583;28;697;-61
2022/04/30 04:47:23;;;;;;;;;;;;;;;14.72;55.68;102592.16;1046523;28;1405;-60
2022/04/30 04:48:14;;;;;;;;;;;;;;;14.72;55.24;102592.16;1045807;28;689;-60